Weather observations for the past three days for
Elk City Regional Business Airport
Metric (Imperial)
Date Time (cdt) Wind (kph) Vis. (km) Weather Sky Cond. Temperature (ºC) Relative Humidity Wind Chill (°C) Heat Index (°C) Pressure Precipitation (cm)
Air Dwpt 6 hour altimeter (cm) sea level (mb) 1 hr 3 hr 6 hr
Max. Min.
04 00:35 S 28 14.48 Fair CLR 19.1 5.3 41% 75.79 0.0
04 00:15 S 30 14.48 Fair CLR 19.2 5.1 40% 75.79 0.0
03 23:55 S 26 14.48 Fair CLR 19.5 4.8 38% 75.82 0.0
03 23:35 S 24 14.48 Fair CLR 19.5 4.8 38% 75.82 0.0
03 23:15 S 22 14.48 Fair CLR 19.9 4.4 36% 75.82 0.0
03 22:55 S 19 14.48 Fair CLR 20.4 4.1 34% 75.84 0.0
03 22:35 S 22 14.48 Fair CLR 20.9 4 33% 75.84 0.0
03 22:15 S 22 14.48 Fair CLR 20.9 3.6 32% 75.82 0.0
03 21:55 S 15 14.48 Fair CLR 20.3 2.2 30% 75.82 0.0
03 21:35 S 19 12.87 Fair CLR 21.4 2.2 28% 75.82 0.0
03 21:15 S 20 14.48 Fair CLR 22.1 2 27% 75.79 0.0
03 20:55 S 20 11.27 Fair CLR 23.1 1.9 25% 75.79 0.0
03 20:35 S 24 11.27 Fair CLR 23.8 1.9 24% 75.79 0.0
03 20:15 S 22 9.66 Fair with Haze CLR 24.4 1.6 22% 25 75.79 0.0
03 19:55 S 28 G 44 11.27 Fair CLR 25.5 1.3 21% 25 75.79 0.0
03 19:35 S 28 G 39 12.87 Fair CLR 26.2 1.8 20% 26 75.79 0.0
03 19:15 S 31 12.87 Fair CLR 26.9 1.3 19% 26 75.79 0.0
03 18:55 S 35 G 43 12.87 Fair and Breezy CLR 26.6 1.1 28.1 26 19% 26 75.82 0.0
03 18:35 S 30 G 43 14.48 Fair CLR 27.3 1.6 19% 26 75.82 0.0
03 18:15 SW 39 G 48 12.87 Fair and Breezy CLR 27.7 1.4 18% 26 75.82 0.0
03 17:55 SW 26 12.87 Fair CLR 27.2 1.1 18% 26 75.87 0.0
03 17:35 SW 30 G 41 14.48 Fair CLR 27.4 1.6 19% 26 75.87 0.0
03 17:15 SW 26 G 48 14.48 Fair CLR 27.5 1.7 19% 26 75.9 0.0
03 16:55 SW 30 G 43 14.48 Fair CLR 27.9 1 17% 27 75.92 0.0
03 16:35 S 39 G 48 14.48 Fair and Breezy CLR 28 1.3 18% 27 75.95 0.0
03 16:15 S 37 G 50 14.48 Fair and Breezy CLR 27.7 1.1 18% 26 75.97 0.0
03 15:55 SW 31 G 50 12.87 Fair CLR 27.8 1.6 18% 27 76.02 0.0
03 15:35 SW 39 G 50 14.48 Fair and Breezy CLR 27.6 1.5 18% 26 76.02 0.0
03 15:15 SW 37 G 50 12.87 Fair and Breezy CLR 27.5 0.9 18% 26 76.05 0.0
03 14:55 SW 31 G 48 14.48 Fair CLR 27.7 2.1 19% 27 76.1 0.0
03 13:55 SW 26 G 41 12.87 Fair CLR 27.2 2.1 20% 26 76.15 0.0
03 13:35 SW 33 G 48 14.48 A Few Clouds and Breezy FEW360 26.5 1 19% 26 76.17 0.0
03 13:15 W 28 G 46 14.48 Fair CLR 26.4 1.7 20% 26 76.23 0.0
03 12:55 S 30 G 39 14.48 Fair CLR 25.8 2.4 26.1 10.6 22% 25 76.28 0.0
03 12:35 SW 31 G 44 14.48 Fair CLR 25.9 1.8 21% 25 76.3 0.0
03 12:15 SW 31 G 43 14.48 Fair CLR 25.6 1 20% 25 76.3 0.0
03 11:55 SW 24 G 41 14.48 Fair CLR 25.3 2.2 22% 25 76.33 0.0
03 11:35 SW 22 G 33 14.48 Fair CLR 24.8 4.4 27% 25 76.35 0.0
03 11:15 SW 26 14.48 Fair CLR 24 4.8 29% 25 76.35 0.0
03 10:55 SW 24 14.48 Fair CLR 22.9 5.5 32% 76.35 0.0
03 10:35 SW 26 14.48 Fair CLR 21.9 5.2 34% 76.38 0.0
03 10:15 W 20 14.48 Fair CLR 21.5 5.2 35% 76.38 0.0
03 09:55 W 19 14.48 Fair CLR 19.8 4.9 38% 76.38 0.0
03 09:35 SW 15 14.48 Fair CLR 19.4 5.1 39% 76.38 0.0
03 09:15 W 11 14.48 Fair CLR 19 4.9 40% 76.38 0.0
03 08:55 SW 9 16.09 Fair CLR 17.6 4.7 43% 76.35 0.0
03 08:35 SW 11 16.09 Fair CLR 16.9 4.7 45% 76.35 0.0
03 08:15 W 11 14.48 Fair CLR 16 4.8 48% 76.33 0.0
03 07:55 W 9 14.48 Fair CLR 13.4 3.9 53% 76.3 0.0
03 07:35 W 9 14.48 Fair CLR 12.1 2.9 54% 76.3 0.0
03 07:15 W 9 12.87 Fair CLR 10.9 1.6 53% 76.3 0.0
03 06:55 W 7 16.09 Fair CLR 9.6 3.4 13.2 8.2 66% 9 76.3 0.0
03 06:35 Calm 14.48 Fair CLR 9.2 4.2 71% 76.3 0.0
03 06:15 SW 7 16.09 Fair CLR 9.5 4.6 72% 9 76.28 0.0
03 05:55 S 7 16.09 Fair CLR 9.7 5.4 75% 9 76.28 0.0
03 05:35 S 9 16.09 Fair CLR 8.9 5.4 79% 8 76.28 0.0
03 05:15 S 11 16.09 Fair CLR 9 5.7 80% 8 76.28 0.0
03 04:55 S 9 16.09 Fair CLR 9.2 5.8 80% 8 76.28 0.0
03 04:35 S 11 16.09 Fair CLR 9.4 5.9 79% 8 76.3 0.0
03 04:15 SW 13 16.09 Fair CLR 9.6 6 78% 8 76.3 0.0
03 03:55 S 11 16.09 Fair CLR 9.8 6.2 79% 8 76.3 0.0
03 03:35 S 7 14.48 Fair CLR 9.8 7.1 83% 9 76.3 0.0
03 03:15 SW 6 14.48 Fair CLR 9.1 6.7 85% 76.3 0.0
03 02:55 S 7 16.09 Fair CLR 11 6.4 74% 76.33 0.0
03 02:35 SE 6 16.09 Fair CLR 10.5 6.3 75% 76.33 0.0
03 02:15 SE 6 14.48 Fair CLR 11.6 6 69% 76.35 0.0
03 01:55 Calm 14.48 Fair CLR 11.4 5.8 69% 76.38 0.0
03 01:35 Calm 16.09 Fair CLR 11.9 5.5 65% 76.38 0.0
03 01:15 Calm 14.48 Fair CLR 13.2 5.3 59% 76.4 0.0
03 00:55 E 6 14.48 Fair CLR 12.9 5.3 23.5 11.8 60% 76.4 0.0
03 00:35 E 6 14.48 Fair CLR 12.2 5.5 64% 76.4 0.0
03 00:15 E 7 16.09 Fair CLR 13 5.6 61% 76.4 0.0
02 23:55 E 9 14.48 Fair CLR 12.7 5.6 62% 76.4 0.0
02 23:35 E 7 14.48 Fair CLR 13.3 5.4 59% 76.4 0.0
02 23:15 E 9 14.48 Fair CLR 14.8 4.9 52% 76.4 0.0
02 22:55 E 9 16.09 Fair CLR 15.5 4.4 48% 76.4 0.0
02 22:35 E 11 16.09 Fair CLR 14.6 4.2 50% 76.4 0.0
02 22:15 E 13 16.09 Fair CLR 16.1 3.8 44% 76.38 0.0
02 21:55 E 9 16.09 Fair CLR 16.8 3.2 40% 76.38 0.0
02 21:35 E 7 16.09 Fair CLR 16.7 3.3 41% 76.35 0.0
02 21:15 E 7 14.48 Fair CLR 17.8 3 37% 76.33 0.0
02 20:55 E 11 11.27 Fair CLR 17.4 3 38% 76.3 0.0
02 20:35 E 9 11.27 Fair CLR 18.3 2.9 36% 76.3 0.0
02 20:15 E 13 12.87 Fair CLR 19.7 2.9 33% 76.28 0.0
02 19:55 E 9 14.48 Fair CLR 21.8 1.7 27% 76.28 0.0
02 19:35 E 15 14.48 Fair CLR 22.5 1 24% 76.28 0.0
02 19:15 NE 15 14.48 Fair CLR 22.7 1.1 24% 76.28 0.0
02 18:55 NE 7 12.87 Fair CLR 24 -1.5 25.3 21.7 18% 24 76.28 0.0
02 18:35 N 7 14.48 Fair CLR 24.2 -1.1 19% 24 76.3 0.0
02 18:15 Vrbl 6 14.48 Fair CLR 24.8 -1.3 18% 25 76.3 0.0
02 17:55 Calm 14.48 Fair CLR 24.3 -1.8 18% 24 76.3 0.0
02 17:35 Calm 14.48 Fair CLR 24.4 -1 19% 25 76.33 0.0
02 17:15 N 15 14.48 Fair CLR 24.8 -0.6 19% 25 76.33 0.0
02 16:55 NE 9 14.48 Fair CLR 24.6 -1.9 17% 25 76.33 0.0
02 16:35 Vrbl 11 14.48 A Few Clouds FEW110 24.9 -1.7 17% 25 76.35 0.0
02 16:15 Vrbl 7 14.48 Partly Cloudy SCT110 24.4 -2.1 17% 24 76.38 0.0
02 15:55 NW 13 14.48 Mostly Cloudy BKN110 23.3 -2.1 18% 76.4 0.0
02 15:35 NW 20 G 28 14.48 Mostly Cloudy BKN110 23.9 -1.7 18% 24 76.43 0.0
02 15:15 NW 22 14.48 Partly Cloudy SCT100 24.8 -0.8 18% 25 76.43 0.0
02 14:55 NW 31 14.48 Partly Cloudy SCT100 23.7 -1.5 19% 76.43 0.0
02 14:35 NW 11 14.48 A Few Clouds FEW100 23.7 -2.2 18% 76.45 0.0
02 14:15 NW 15 G 31 14.48 A Few Clouds FEW100 23.9 -1.6 18% 24 76.48 0.0
02 13:55 NW 13 G 28 14.48 Partly Cloudy SCT100 23.3 -1 20% 76.48 0.0
02 13:35 NW 15 14.48 Fair CLR 23.6 0.1 21% 76.5 0.0
02 13:15 NW 19 14.48 Fair CLR 23.1 0.8 23% 76.53 0.0
02 12:55 W 11 14.48 Fair CLR 22.2 1 22.3 7.8 25% 76.56 0.0
02 12:35 NW 9 14.48 Fair CLR 22 2.2 27% 76.56 0.0
02 12:15 W 15 14.48 Fair CLR 21.3 2.8 30% 76.58 0.0
02 11:55 NW 9 16.09 Fair CLR 20.7 2.5 30% 76.58 0.0
02 11:35 Calm 16.09 Fair CLR 19.8 3.8 35% 76.61 0.0
02 11:15 W 15 14.48 Fair CLR 19.5 4.9 38% 76.61 0.0
02 10:55 Vrbl 7 16.09 Fair CLR 18.1 6 45% 76.61 0.0
02 10:35 Calm 14.48 Fair CLR 17.4 6.5 49% 76.61 0.0
02 10:15 Vrbl 7 16.09 Fair CLR 16.9 6.8 52% 76.61 0.0
02 09:55 N 11 16.09 Fair CLR 16.3 7.4 56% 76.61 0.0
02 09:35 NW 11 16.09 Fair CLR 15.9 7.6 58% 76.61 0.0
02 09:15 NW 15 16.09 Fair CLR 15.3 7.5 60% 76.61 0.0
02 08:55 W 13 16.09 Fair CLR 14.6 7.9 64% 76.61 0.0
02 08:35 NW 13 16.09 Fair CLR 13.8 8.4 70% 76.58 0.0
02 08:15 W 7 16.09 Fair CLR 11.8 9 83% 76.58 0.0
02 07:55 W 6 14.48 Fair CLR 9.2 8.1 93% 76.58 0.0
02 07:35 W 6 12.87 Fair CLR 8.2 7.6 96% 76.56 0.0
02 07:15 NW 9 14.48 Fair CLR 8.1 7 93% 7 76.56 0.0
02 06:55 NW 9 14.48 Fair CLR 8.3 6.9 10.1 7.5 91% 7 76.53 0.0
02 06:35 NW 11 16.09 Fair CLR 8.7 7 89% 7 76.5 0.0
02 06:15 NW 11 16.09 Fair CLR 8.6 7 90% 7 76.5 0.0
02 05:55 NW 9 16.09 Fair CLR 8.7 7.2 90% 7 76.48 0.0
02 05:35 NW 11 16.09 Fair CLR 8.7 7.3 91% 7 76.48 0.0
02 05:15 NW 13 16.09 Fair CLR 8.5 7.4 93% 7 76.48 0.0
02 04:55 NW 11 16.09 Fair CLR 9 7.5 90% 8 76.48 0.0
02 04:35 NW 11 16.09 Fair CLR 9.1 7.8 92% 8 76.45 0.0
02 04:15 NW 13 16.09 Fair CLR 9.1 7.4 89% 7 76.45 0.0
02 03:55 NW 13 16.09 Fair CLR 9.2 7.4 89% 7 76.45 0.0
02 03:35 NW 11 16.09 Fair CLR 9.2 7.2 87% 8 76.48 0.0
02 03:15 NW 11 16.09 Fair CLR 9.4 7.3 87% 8 76.45 0.0
02 02:55 W 13 16.09 Fair CLR 9.6 7.3 86% 8 76.48 0.0
02 02:35 NW 11 16.09 Fair CLR 10.1 6.6 79% 76.48 0.0
02 02:15 W 7 16.09 Fair CLR 9 5.6 79% 8 76.48 0.0
02 01:55 Calm 16.09 Fair CLR 7.7 6.3 91% 76.5 0.0
02 01:35 W 7 16.09 Fair CLR 8.2 6.1 87% 7 76.5 0.0
02 01:15 W 6 16.09 Fair CLR 8.9 5.9 82% 76.5 0.0
02 00:55 SW 6 16.09 Fair CLR 9.7 5.2 18.5 8.9 74% 76.5 0.0
02 00:35 Calm 16.09 Fair CLR 9.4 5.9 79% 76.5 0.0
02 00:15 Calm 16.09 Fair CLR 9.4 6.3 81% 76.5 0.0
01 23:55 Calm 14.48 Fair CLR 8.9 6.1 83% 76.48 0.0
01 23:35 NW 6 12.87 Fair CLR 9.1 6.9 86% 76.48 0.0
01 23:15 Calm 16.09 Fair CLR 10.2 3.9 65% 76.48 0.0
01 22:55 Calm 16.09 Fair CLR 13.1 2.7 50% 76.45 0.0
01 22:35 W 6 16.09 Fair CLR 12.8 2.8 51% 76.45 0.0
01 22:15 Calm 16.09 Fair CLR 13.5 2.8 49% 76.43 0.0
01 21:55 W 6 16.09 Fair CLR 11.7 3.8 59% 76.4 0.0
01 21:35 W 6 16.09 A Few Clouds FEW085 12.7 3.7 55% 76.4 0.0
01 21:15 Calm 16.09 Partly Cloudy SCT085 15.4 0.9 38% 76.38 0.0
01 20:55 Calm 16.09 A Few Clouds FEW100 14.1 2.7 46% 76.38 0.0
01 20:35 Calm 16.09 Partly Cloudy FEW070 SCT100 16.2 1.4 37% 76.35 0.0
01 20:15 NE 6 16.09 Mostly Cloudy BKN070 16.9 0.9 34% 76.35 0.0
01 19:55 N 6 14.48 Fair CLR 17.4 0.9 33% 76.35 0.0
01 19:35 NE 7 16.09 A Few Clouds FEW100 17.9 1.2 33% 76.33 0.0
01 19:15 N 7 16.09 Mostly Cloudy BKN100 18.4 1 31% 76.3 0.0
01 18:55 N 11 16.09 Overcast FEW075 OVC100 18.3 1 19.3 17.4 31% 76.3 0.0
01 18:35 Calm 16.09 Overcast FEW080 OVC100 18.1 0.8 31% 76.3 0.0
01 18:15 Vrbl 7 16.09 Overcast FEW075 OVC095 18.3 1.2 32% 76.3 0.0
01 17:55 NE 7 16.09 Overcast BKN070 OVC090 18.5 1.3 32% 76.3 0.0
01 17:35 Calm 16.09 Overcast OVC070 18.2 1 32% 76.28 0.0
01 17:15 Vrbl 9 14.48 Overcast OVC070 18.1 0.7 31% 76.28 0.0
01 16:55 NE 15 14.48 Overcast OVC070 18.1 0.9 32% 76.28 0.0
01 16:35 NE 13 16.09 Overcast OVC070 18.3 1.6 33% 76.28 0.0
01 16:15 NE 7 16.09 Overcast OVC070 18.3 1.2 32% 76.28 0.0
01 15:55 NE 13 14.48 Mostly Cloudy BKN070 18.1 1.5 33% 76.3 0.0
01 15:35 NE 15 16.09 Mostly Cloudy SCT065 BKN085 19 2 32% 76.33 0.0
01 15:15 Calm 16.09 Mostly Cloudy BKN080 BKN090 18.2 1.8 34% 76.35 0.0
01 14:55 NE 9 16.09 Overcast BKN070 OVC080 17.7 2.6 37% 76.38 0.0
01 14:35 NE 15 16.09 Overcast OVC075 18.4 3 36% 76.38 0.0
01 14:15 NE 17 16.09 Overcast FEW060 OVC080 18.3 3.4 37% 76.38 0.0
01 13:55 NE 17 16.09 Overcast FEW070 BKN085 OVC120 18.8 4.1 38% 76.4 0.0
01 13:35 NE 7 16.09 Overcast BKN080 OVC120 18.3 4 39% 76.43 0.0
01 12:55 E 13 16.09 Overcast BKN055 OVC080 17.5 4.2 17.5 8.2 42% 76.45 0.0
01 12:35 NE 15 16.09 Overcast OVC055 17.4 4.2 42% 76.45 0.0
01 12:15 Calm 16.09 Overcast BKN049 BKN060 OVC110 16.7 4.5 45% 76.48 0.0
01 11:55 E 13 16.09 Overcast OVC110 17.1 5.3 46% 76.48 0.0
01 11:35 E 13 16.09 Mostly Cloudy FEW042 BKN110 17 5.9 48% 76.48 0.0
01 11:15 Vrbl 9 16.09 Mostly Cloudy BKN110 16.6 7.3 54% 76.48 0.0
01 10:55 NE 11 16.09 Overcast OVC110 15.5 7.7 60% 76.45 0.0
01 10:35 E 13 16.09 Mostly Cloudy BKN100 15.1 8.1 63% 76.45 0.0
01 10:15 E 17 16.09 Overcast OVC100 14.4 8.4 67% 76.43 0.0
01 09:55 NE 19 16.09 Overcast OVC100 13.9 8.2 69% 76.43 0.0
01 09:35 NE 20 16.09 Overcast OVC100 13.4 8.2 71% 76.43 0.0
01 09:15 NE 20 16.09 Overcast OVC110 12.8 8.1 73% 76.43 0.0
01 08:55 NE 20 16.09 Overcast OVC120 12.1 8.4 78% 76.43 0.0
01 08:35 NE 19 16.09 Mostly Cloudy BKN120 11.8 8.2 79% 76.43 0.0
01 08:15 NE 17 16.09 Fair CLR 10.6 8.1 85% 76.4 0.0
01 07:55 NE 15 16.09 Fair CLR 9.4 8 91% 7 76.4 0.0
01 07:35 NE 13 14.48 Fair CLR 8.7 7.9 95% 7 76.4 0.0
01 07:15 NE 13 16.09 Fair CLR 8.2 7.8 97% 6 76.4 0.0
01 06:55 NE 13 16.09 A Few Clouds FEW220 8.6 7.7 11.3 8.6 94% 7 76.38 0.0
01 06:35 NE 13 16.09 A Few Clouds FEW220 8.7 7.7 94% 7 76.35 0.0
01 06:15 NE 17 16.09 Fair CLR 9.2 7.9 92% 7 76.35 0.0
01 05:55 NE 13 16.09 Fair CLR 9 8 94% 7 76.33 0.0
01 05:35 NE 15 16.09 Fair CLR 9.5 8.1 91% 8 76.33 0.0
01 05:15 NE 19 16.09 Fair CLR 9.5 8.1 91% 7 76.33 0.0
01 04:55 NE 17 16.09 Fair CLR 9.6 8 90% 7 76.33 0.0
01 04:35 NE 19 16.09 A Few Clouds FEW110 9.8 7.8 88% 8 76.33 0.0
01 04:15 NE 20 16.09 Mostly Cloudy BKN110 10.1 7.7 85% 76.33 0.0
01 03:55 NE 19 16.09 Overcast OVC110 10.3 7.7 84% 76.35 0.0
01 03:35 NE 19 16.09 Overcast OVC110 10.3 7.8 85% 76.35 0.0
01 03:15 NE 17 16.09 Overcast OVC110 10.3 7.9 85% 76.38 0.0
01 02:55 NE 15 16.09 Mostly Cloudy BKN110 10 7.6 85% 8 76.38 0.0
01 02:35 NE 15 16.09 A Few Clouds FEW110 9.9 7.4 85% 8 76.38 0.0
01 02:15 NE 15 16.09 A Few Clouds FEW110 10.2 6.7 79% 76.38 0.0
01 01:55 NE 15 16.09 Fair CLR 10.5 5 69% 76.4 0.0
01 01:35 NE 15 16.09 A Few Clouds FEW130 10.7 3.7 62% 76.38 0.0
01 01:15 N 13 16.09 A Few Clouds FEW130 10.8 3.3 60% 76.4 0.0
Date Time (cdt) Wind (kph) Vis. (km) Weather Sky Cond. Air Dwpt Max. Min. Relative Humidity Wind Chill (°C) Heat Index (°C) altimeter (cm) sea level (mb) 1 hr 3 hr 6 hr
6 hour
Temperature (ºC) Pressure Precipitation (cm)